Time;durP1;ratioP1;P1;durP2;ratioP2;P2;SDS_P1;SDS_P2;PMS_P1;PMS_P2;Temp;Humidity;BMP_temperature;BMP_pressure;BME280_temperature;BME280_humidity;BME280_pressure;Samples;Min_cycle;Max_cycle;Signal;HPM_P1;HPM_P2
2023/02/27 00:01:44;;;;;;;1.88;1.10;;;-3.70;99.90;;;;;;7384766;19;20324;-80
2023/02/27 00:04:09;;;;;;;1.13;1.10;;;-3.70;99.90;;;;;;7384711;19;20716;-81
2023/02/27 00:06:35;;;;;;;1.40;1.30;;;-3.70;99.90;;;;;;7385722;19;20321;-79
2023/02/27 00:09:00;;;;;;;1.30;1.20;;;-3.60;99.90;;;;;;7396495;19;20332;-82
2023/02/27 00:11:26;;;;;;;1.83;1.30;;;-3.70;99.90;;;;;;7400843;19;20332;-82
2023/02/27 00:13:52;;;;;;;1.00;1.00;;;-3.70;99.90;;;;;;7396600;19;20336;-87
2023/02/27 00:16:17;;;;;;;1.10;1.10;;;-3.70;99.90;;;;;;7399097;19;20397;-80
2023/02/27 00:18:44;;;;;;;2.30;1.30;;;-3.60;99.90;;;;;;7397931;19;20305;-86
2023/02/27 00:21:09;;;;;;;1.38;1.20;;;-3.70;99.90;;;;;;7398478;19;20414;-82
2023/02/27 00:23:36;;;;;;;1.50;1.40;;;-3.60;99.90;;;;;;7396655;19;20372;-84
2023/02/27 00:26:02;;;;;;;1.75;1.58;;;-3.60;99.90;;;;;;7398833;19;21201;-84
2023/02/27 00:28:28;;;;;;;2.72;1.45;;;-3.50;99.90;;;;;;7395988;19;20348;-84
2023/02/27 00:30:54;;;;;;;1.63;1.33;;;-3.50;99.90;;;;;;7397004;19;20391;-84
2023/02/27 00:33:19;;;;;;;1.60;1.40;;;-3.40;99.90;;;;;;7397543;19;20301;-83
2023/02/27 00:35:53;;;;;;;1.23;1.20;;;-3.40;99.90;;;;;;7397476;19;20333;-85
2023/02/27 00:38:19;;;;;;;1.30;1.20;;;-3.30;99.90;;;;;;7294935;19;2004255;-88
2023/02/27 00:40:44;;;;;;;2.42;1.77;;;-3.20;99.90;;;;;;7402930;19;20389;-89
2023/02/27 00:43:10;;;;;;;2.08;1.63;;;-3.20;99.90;;;;;;7400365;19;21556;-89
2023/02/27 00:45:35;;;;;;;2.00;1.70;;;-3.10;99.90;;;;;;7396314;19;20349;-86
2023/02/27 00:48:01;;;;;;;2.28;1.77;;;-2.90;99.90;;;;;;7397992;19;20352;-86
2023/02/27 00:50:27;;;;;;;1.33;1.33;;;-3.00;99.90;;;;;;7399162;19;20332;-84
2023/02/27 00:52:52;;;;;;;1.85;1.60;;;-2.80;99.90;;;;;;7398314;19;20360;-80
2023/02/27 00:55:18;;;;;;;1.87;1.33;;;-2.90;99.90;;;;;;7397977;19;20386;-86
2023/02/27 00:57:43;;;;;;;1.50;1.40;;;-2.80;99.90;;;;;;7401119;19;20345;-81
2023/02/27 01:00:09;;;;;;;1.90;1.50;;;-2.80;99.90;;;;;;7400874;19;20316;-86
2023/02/27 01:02:36;;;;;;;2.47;1.48;;;-2.80;99.90;;;;;;7398216;19;20355;-91
2023/02/27 01:05:02;;;;;;;1.88;1.55;;;-2.70;99.90;;;;;;7401399;19;20319;-84
2023/02/27 01:07:29;;;;;;;3.10;1.60;;;-2.70;99.90;;;;;;7401510;19;20320;-83
2023/02/27 01:09:54;;;;;;;2.20;1.67;;;-2.50;99.90;;;;;;7403193;19;20315;-83
2023/02/27 01:12:20;;;;;;;1.60;1.50;;;-2.60;99.90;;;;;;7402327;19;20379;-80
2023/02/27 01:14:46;;;;;;;1.70;1.37;;;-2.60;99.90;;;;;;7402805;19;20362;-87
2023/02/27 01:17:11;;;;;;;1.45;1.35;;;-2.50;99.90;;;;;;7401189;19;20316;-85
2023/02/27 01:19:37;;;;;;;1.10;1.10;;;-2.50;99.90;;;;;;7400748;19;20316;-88
2023/02/27 01:22:04;;;;;;;2.33;1.55;;;-2.40;99.90;;;;;;7399003;19;20320;-86
2023/02/27 01:24:29;;;;;;;1.48;1.38;;;-2.40;99.90;;;;;;7398158;19;20337;-84
2023/02/27 01:26:55;;;;;;;1.40;1.10;;;-2.40;99.90;;;;;;7401036;19;20301;-84
2023/02/27 01:29:21;;;;;;;1.15;1.10;;;-2.40;99.90;;;;;;7400974;19;20409;-86
2023/02/27 01:31:47;;;;;;;1.30;1.20;;;-2.30;99.90;;;;;;7400618;19;20321;-81
2023/02/27 01:34:13;;;;;;;1.55;1.45;;;-2.20;99.90;;;;;;7397767;19;20316;-84
2023/02/27 01:36:39;;;;;;;1.30;1.20;;;-2.10;99.90;;;;;;7392916;19;20293;-91
2023/02/27 01:39:05;;;;;;;1.38;1.27;;;-2.10;99.90;;;;;;7402749;19;20349;-84
2023/02/27 01:41:31;;;;;;;1.27;1.10;;;-2.10;99.90;;;;;;7400176;19;20340;-87
2023/02/27 01:43:58;;;;;;;1.20;1.10;;;-2.00;99.90;;;;;;7398701;19;20331;-85
2023/02/27 01:46:23;;;;;;;1.00;1.00;;;-1.90;99.90;;;;;;7402833;19;20379;-86
2023/02/27 01:48:49;;;;;;;0.95;0.90;;;-1.90;99.90;;;;;;7405901;19;20337;-81
2023/02/27 01:51:18;;;;;;;1.40;1.30;;;-1.90;99.90;;;;;;7408340;19;20362;-86
2023/02/27 01:53:44;;;;;;;1.10;1.10;;;-1.90;99.90;;;;;;7407480;19;20344;-84
2023/02/27 01:56:22;;;;;;;1.70;1.40;;;-1.90;99.90;;;;;;7407297;19;20305;-87
2023/02/27 01:58:48;;;;;;;1.27;1.23;;;-1.90;99.90;;;;;;7306748;19;2004228;-86
2023/02/27 02:01:14;;;;;;;2.40;1.42;;;-1.90;99.90;;;;;;7410320;19;20400;-87
2023/02/27 02:03:45;;;;;;;1.40;1.10;;;-1.90;99.90;;;;;;7408713;19;20344;-83
2023/02/27 02:06:11;;;;;;;1.40;1.30;;;-1.80;99.90;;;;;;7408303;19;20308;-85
2023/02/27 02:08:40;;;;;;;1.57;1.47;;;-1.80;99.90;;;;;;7409386;19;20417;-86
2023/02/27 02:11:06;;;;;;;1.90;1.20;;;-1.80;99.90;;;;;;7408342;19;20332;-83
2023/02/27 02:13:34;;;;;;;1.70;1.40;;;-1.70;99.90;;;;;;7408589;19;20365;-81
2023/02/27 02:16:35;;;;;;;2.08;1.27;;;-1.70;99.90;;;;;;7408029;19;20326;-79
2023/02/27 02:19:03;;;;;;;1.48;1.38;;;-1.80;99.90;;;;;;7306069;19;2004170;-88
2023/02/27 02:21:50;;;;;;;1.40;1.30;;;-1.80;99.90;;;;;;7408497;19;20314;-86
2023/02/27 02:25:00;;;;;;;1.90;1.40;;;-1.80;99.90;;;;;;7405762;19;20412;-89
2023/02/27 02:27:50;;;;;;;3.03;1.50;;;-1.80;99.90;;;;;;7199392;19;2010286;-85
2023/02/27 02:30:28;;;;;;;12.70;5.53;;;-1.80;99.90;;;;;;7405588;19;20316;-88
2023/02/27 02:33:29;;;;;;;16.23;7.38;;;-1.80;99.90;;;;;;7302788;19;2004219;-88
2023/02/27 02:36:14;;;;;;;6.35;3.25;;;-1.80;99.90;;;;;;7303204;19;2004338;-83
2023/02/27 02:39:07;;;;;;;2.75;1.70;;;-1.80;99.90;;;;;;7407623;19;20721;-87
2023/02/27 02:41:54;;;;;;;1.83;1.60;;;-1.80;99.90;;;;;;7303288;19;2004357;-86
2023/02/27 02:44:41;;;;;;;1.23;1.10;;;-1.90;99.90;;;;;;7301661;19;2004216;-87
2023/02/27 02:47:14;;;;;;;1.50;1.40;;;-1.90;99.90;;;;;;7405322;19;20357;-85
2023/02/27 02:49:43;;;;;;;1.30;1.20;;;-2.00;99.90;;;;;;7405160;19;20393;-85
2023/02/27 02:52:36;;;;;;;1.30;1.20;;;-2.10;99.90;;;;;;7405446;19;20309;-89
2023/02/27 02:55:21;;;;;;;1.60;1.50;;;-2.10;99.90;;;;;;7298748;19;2004381;-80
2023/02/27 02:58:26;;;;;;;1.67;1.40;;;-2.10;99.90;;;;;;7389369;19;21004;-78
2023/02/27 03:00:55;;;;;;;1.40;1.30;;;-2.10;99.90;;;;;;7182242;19;2004412;-80
2023/02/27 03:03:29;;;;;;;1.13;1.10;;;-2.20;99.90;;;;;;7388461;19;20345;-79
2023/02/27 03:06:06;;;;;;;1.23;1.13;;;-2.20;99.90;;;;;;7388907;19;20308;-84
2023/02/27 03:08:35;;;;;;;1.33;1.23;;;-2.20;99.90;;;;;;7389201;19;20392;-78
2023/02/27 03:11:02;;;;;;;1.30;1.10;;;-2.20;99.90;;;;;;7389392;19;20321;-82
2023/02/27 03:13:40;;;;;;;1.27;1.17;;;-2.20;99.90;;;;;;7387798;19;20333;-81
2023/02/27 03:16:09;;;;;;;1.02;1.02;;;-2.20;99.90;;;;;;7389375;19;20334;-79
2023/02/27 03:18:53;;;;;;;1.40;1.30;;;-2.20;99.90;;;;;;7388600;19;20317;-80
2023/02/27 03:21:26;;;;;;;1.10;1.10;;;-2.20;99.90;;;;;;7287243;19;2004227;-78
2023/02/27 03:23:52;;;;;;;1.23;1.20;;;-2.30;99.90;;;;;;7387238;19;20340;-80
2023/02/27 03:26:20;;;;;;;1.30;1.20;;;-2.40;99.90;;;;;;7387121;19;20301;-78
2023/02/27 03:28:54;;;;;;;1.02;1.02;;;-2.40;99.90;;;;;;7389130;19;21088;-81
2023/02/27 03:31:48;;;;;;;1.20;1.10;;;-2.40;99.90;;;;;;7284709;19;2004315;-80
2023/02/27 03:34:18;;;;;;;1.30;1.20;;;-2.50;99.90;;;;;;7387872;19;20320;-83
2023/02/27 03:36:53;;;;;;;1.40;1.07;;;-2.50;99.90;;;;;;7389402;19;20320;-80
2023/02/27 03:39:50;;;;;;;2.55;1.20;;;-2.50;99.90;;;;;;7283060;19;2004234;-80
2023/02/27 03:42:49;;;;;;;1.20;1.10;;;-2.50;99.90;;;;;;7283833;19;2004530;-80
2023/02/27 03:45:41;;;;;;;0.90;0.90;;;-2.60;99.90;;;;;;7284396;19;2004475;-80
2023/02/27 03:48:07;;;;;;;1.20;1.10;;;-2.60;99.90;;;;;;7389006;19;20320;-81
2023/02/27 03:50:36;;;;;;;1.52;1.20;;;-2.60;99.90;;;;;;7387664;19;20305;-79
2023/02/27 03:53:11;;;;;;;1.10;1.10;;;-2.60;99.90;;;;;;7384524;19;20340;-81
2023/02/27 03:55:39;;;;;;;1.10;1.10;;;-2.70;99.90;;;;;;7345552;19;20676;-84
2023/02/27 03:58:04;;;;;;;1.58;1.05;;;-2.70;99.90;;;;;;7385991;19;20324;-80
2023/02/27 04:00:30;;;;;;;1.17;1.15;;;-2.70;99.90;;;;;;7386058;19;20338;-81
2023/02/27 04:02:57;;;;;;;1.60;1.33;;;-2.70;99.90;;;;;;7388925;19;20436;-79
2023/02/27 04:05:24;;;;;;;2.20;1.50;;;-2.70;99.90;;;;;;7386895;19;20304;-79
2023/02/27 04:08:28;;;;;;;1.13;1.02;;;-2.70;99.90;;;;;;7387587;19;20316;-80
2023/02/27 04:11:29;;;;;;;1.20;1.20;;;-2.70;99.90;;;;;;7285486;19;2004382;-79
2023/02/27 04:14:35;;;;;;;1.70;1.50;;;-2.70;99.90;;;;;;7284742;19;2004219;-79
2023/02/27 04:17:24;;;;;;;1.40;1.30;;;-2.70;99.90;;;;;;7282637;19;2004426;-77
2023/02/27 04:19:55;;;;;;;2.03;1.50;;;-2.70;99.90;;;;;;7389312;19;20309;-82
2023/02/27 04:22:31;;;;;;;2.78;2.03;;;-2.60;99.90;;;;;;7283569;19;2004249;-85
2023/02/27 04:25:10;;;;;;;1.80;1.40;;;-2.60;99.90;;;;;;7386473;19;20313;-78
2023/02/27 04:27:45;;;;;;;1.40;1.30;;;-2.60;99.90;;;;;;7387993;19;20301;-87
2023/02/27 04:30:14;;;;;;;1.40;1.30;;;-2.50;99.90;;;;;;7384823;19;20334;-79
2023/02/27 04:32:47;;;;;;;1.27;1.27;;;-2.50;99.90;;;;;;7386203;19;20847;-79
2023/02/27 04:35:16;;;;;;;1.48;1.33;;;-2.40;99.90;;;;;;7384943;19;20963;-80
2023/02/27 04:38:04;;;;;;;1.83;1.35;;;-2.30;99.90;;;;;;7387245;19;20343;-83
2023/02/27 04:40:35;;;;;;;1.10;1.10;;;-2.30;99.90;;;;;;7283684;19;2004694;-80
2023/02/27 04:43:01;;;;;;;1.45;1.10;;;-2.20;99.90;;;;;;7383981;19;20386;-79
2023/02/27 04:45:27;;;;;;;1.40;1.30;;;-2.30;99.90;;;;;;7388964;19;20305;-81
2023/02/27 04:48:07;;;;;;;1.50;1.30;;;-2.30;99.90;;;;;;7385430;19;20333;-83
2023/02/27 04:50:59;;;;;;;1.55;1.45;;;-2.30;99.90;;;;;;7387754;19;20900;-82
2023/02/27 04:53:27;;;;;;;1.50;1.40;;;-2.30;99.90;;;;;;7284251;19;2019858;-84
2023/02/27 04:56:12;;;;;;;1.60;1.50;;;-2.30;99.90;;;;;;7386567;19;20304;-78
2023/02/27 04:58:44;;;;;;;2.50;1.40;;;-2.30;99.90;;;;;;7387589;19;20326;-78
2023/02/27 05:01:34;;;;;;;1.67;1.58;;;-2.20;99.90;;;;;;7387976;19;20317;-79
2023/02/27 05:04:07;;;;;;;1.45;1.35;;;-2.20;99.90;;;;;;7286181;19;2004425;-81
2023/02/27 05:06:34;;;;;;;1.60;1.50;;;-2.20;99.90;;;;;;7388159;19;20329;-83
2023/02/27 05:09:34;;;;;;;1.40;1.30;;;-2.20;99.90;;;;;;7388325;19;20309;-78
2023/02/27 05:12:31;;;;;;;2.33;1.77;;;-2.20;99.90;;;;;;7282483;19;2019687;-79
2023/02/27 05:15:12;;;;;;;2.40;2.20;;;-2.20;99.90;;;;;;7281665;19;2019042;-80
2023/02/27 05:17:46;;;;;;;4.47;2.60;;;-2.20;99.90;;;;;;7380156;19;20352;-79
2023/02/27 05:20:13;;;;;;;2.73;2.33;;;-2.10;99.90;;;;;;7378553;19;20305;-77
2023/02/27 05:22:46;;;;;;;1.97;1.63;;;-2.20;99.90;;;;;;7379327;19;20343;-79
2023/02/27 05:25:23;;;;;;;1.73;1.60;;;-2.10;99.90;;;;;;7381316;19;20305;-81
2023/02/27 05:27:58;;;;;;;3.13;1.98;;;-2.00;99.90;;;;;;7382905;19;20666;-78
2023/02/27 05:30:57;;;;;;;3.77;2.37;;;-2.00;99.90;;;;;;7280065;19;2004449;-79
2023/02/27 05:33:37;;;;;;;2.45;2.20;;;-2.00;99.90;;;;;;7281078;19;2004321;-79
2023/02/27 05:36:23;;;;;;;1.80;1.70;;;-2.00;99.90;;;;;;7383956;19;20320;-80
2023/02/27 05:38:54;;;;;;;1.67;1.58;;;-2.00;99.90;;;;;;7382790;19;20340;-80
2023/02/27 05:41:41;;;;;;;1.83;1.50;;;-1.90;99.90;;;;;;7383115;19;20305;-77
2023/02/27 05:44:16;;;;;;;1.90;1.40;;;-1.90;99.90;;;;;;7280106;19;2016941;-80
2023/02/27 05:46:48;;;;;;;1.90;1.50;;;-1.90;99.90;;;;;;7382506;19;20864;-78
2023/02/27 05:49:20;;;;;;;2.80;1.50;;;-1.90;99.90;;;;;;7382319;19;20341;-81
2023/02/27 05:51:49;;;;;;;2.20;1.40;;;-1.80;99.90;;;;;;7385732;19;20318;-81
2023/02/27 05:54:49;;;;;;;1.60;1.50;;;-1.80;99.90;;;;;;7382324;19;20305;-82
2023/02/27 05:57:21;;;;;;;1.60;1.50;;;-1.80;99.90;;;;;;7281722;19;2004597;-79
2023/02/27 05:59:55;;;;;;;2.60;1.87;;;-1.80;99.90;;;;;;7387634;19;20354;-78
2023/02/27 06:02:20;;;;;;;2.47;1.98;;;-1.70;99.90;;;;;;7387299;19;20730;-80
2023/02/27 06:04:46;;;;;;;2.22;1.70;;;-1.70;99.90;;;;;;7381825;19;20308;-80
2023/02/27 06:07:13;;;;;;;1.90;1.80;;;-1.70;99.90;;;;;;7384562;19;20317;-83
2023/02/27 06:09:45;;;;;;;1.90;1.80;;;-1.70;99.90;;;;;;7383547;19;20329;-79
2023/02/27 06:12:11;;;;;;;4.97;2.00;;;-1.70;99.90;;;;;;7382953;19;20313;-78
2023/02/27 06:14:37;;;;;;;1.60;1.50;;;-1.70;99.90;;;;;;7381825;19;20309;-80
2023/02/27 06:17:10;;;;;;;1.40;1.23;;;-1.60;99.90;;;;;;7384307;19;20324;-80
2023/02/27 06:19:36;;;;;;;2.05;1.73;;;-1.60;99.90;;;;;;7383964;19;20617;-83
2023/02/27 06:22:01;;;;;;;1.80;1.70;;;-1.50;99.90;;;;;;7383286;19;20392;-80
2023/02/27 06:24:27;;;;;;;1.43;1.33;;;-1.60;99.90;;;;;;7381746;19;20300;-80
2023/02/27 06:26:52;;;;;;;1.60;1.50;;;-1.60;99.90;;;;;;7383691;19;20320;-78
2023/02/27 06:29:18;;;;;;;1.60;1.50;;;-1.60;99.90;;;;;;7382413;19;20846;-83
2023/02/27 06:31:44;;;;;;;1.90;1.80;;;-1.60;99.90;;;;;;7384054;19;21488;-79
2023/02/27 06:34:09;;;;;;;1.30;1.20;;;-1.50;99.90;;;;;;7388373;19;20316;-80
2023/02/27 06:36:35;;;;;;;1.50;1.40;;;-1.60;99.90;;;;;;7388903;19;20333;-80
2023/02/27 06:39:00;;;;;;;3.10;1.70;;;-1.40;99.90;;;;;;7388822;19;20315;-81
2023/02/27 06:41:27;;;;;;;2.20;1.50;;;-1.40;99.90;;;;;;7389674;19;20320;-80
2023/02/27 06:43:54;;;;;;;1.63;1.48;;;-1.40;99.90;;;;;;7389771;19;20361;-79
2023/02/27 06:46:20;;;;;;;2.20;1.63;;;-1.50;99.90;;;;;;7389182;19;20340;-80
2023/02/27 06:48:47;;;;;;;1.70;1.50;;;-1.50;99.90;;;;;;7387369;19;20903;-81
2023/02/27 06:51:13;;;;;;;1.30;1.20;;;-1.40;99.90;;;;;;7390059;19;20328;-78
2023/02/27 06:53:38;;;;;;;2.00;1.40;;;-1.40;99.90;;;;;;7387898;19;21160;-79
2023/02/27 06:56:04;;;;;;;1.83;1.67;;;-1.30;99.90;;;;;;7388865;19;20324;-81
2023/02/27 06:58:36;;;;;;;1.60;1.50;;;-1.30;99.90;;;;;;7388817;19;20321;-80
2023/02/27 07:01:01;;;;;;;1.40;1.30;;;-1.20;99.90;;;;;;7388864;19;20349;-80
2023/02/27 07:03:27;;;;;;;1.27;1.20;;;-1.20;99.90;;;;;;7389035;19;20661;-84
2023/02/27 07:05:52;;;;;;;2.50;1.70;;;-1.10;99.90;;;;;;7390686;19;20380;-81
2023/02/27 07:08:18;;;;;;;1.60;1.40;;;-1.20;99.90;;;;;;7391501;19;20630;-80
2023/02/27 07:10:50;;;;;;;1.57;1.43;;;-1.10;99.90;;;;;;7388312;19;20315;-81
2023/02/27 07:13:16;;;;;;;3.67;1.73;;;-1.00;99.90;;;;;;7388339;19;20320;-81
2023/02/27 07:15:43;;;;;;;1.65;1.55;;;-1.00;99.90;;;;;;7387768;19;20836;-80
2023/02/27 07:18:09;;;;;;;4.30;2.88;;;-0.90;99.90;;;;;;7389975;19;20308;-79
2023/02/27 07:20:34;;;;;;;2.70;2.00;;;-0.80;99.90;;;;;;7390735;19;20363;-83
2023/02/27 07:23:00;;;;;;;4.10;2.50;;;-0.80;99.90;;;;;;7381676;19;20342;-84
2023/02/27 07:25:26;;;;;;;2.95;2.40;;;-0.70;99.90;;;;;;7389757;19;20305;-82
2023/02/27 07:27:54;;;;;;;3.30;2.40;;;-0.70;99.90;;;;;;7394042;19;20681;-82
2023/02/27 07:30:19;;;;;;;3.97;2.63;;;-0.70;99.90;;;;;;7389898;19;20301;-81
2023/02/27 07:32:46;;;;;;;3.92;2.63;;;-0.70;99.90;;;;;;7389121;19;20321;-81
2023/02/27 07:35:11;;;;;;;3.10;2.80;;;-0.70;99.90;;;;;;7391605;19;20323;-81
2023/02/27 07:37:37;;;;;;;3.60;3.17;;;-0.60;99.90;;;;;;7392228;19;20328;-83
2023/02/27 07:40:04;;;;;;;4.07;3.30;;;-0.60;99.90;;;;;;7391452;19;20325;-80
2023/02/27 07:42:29;;;;;;;5.95;3.58;;;-0.70;99.90;;;;;;7387125;19;20737;-80
2023/02/27 07:44:56;;;;;;;2.53;2.33;;;-0.70;99.90;;;;;;7383701;19;20324;-81
2023/02/27 07:47:22;;;;;;;2.50;2.30;;;-0.60;99.90;;;;;;7393565;19;20847;-80
2023/02/27 07:49:48;;;;;;;2.80;2.53;;;-0.60;99.90;;;;;;7383766;19;20301;-83
2023/02/27 07:52:15;;;;;;;3.53;2.97;;;-0.50;99.90;;;;;;7383818;19;20316;-79
2023/02/27 07:54:43;;;;;;;4.80;3.10;;;-0.60;99.90;;;;;;7381890;19;20354;-78
2023/02/27 07:57:08;;;;;;;2.83;2.63;;;-0.60;99.90;;;;;;7376225;19;20313;-80
2023/02/27 07:59:35;;;;;;;3.37;3.00;;;-0.50;99.90;;;;;;7382858;19;20324;-79
2023/02/27 08:02:00;;;;;;;3.78;2.60;;;-0.50;99.90;;;;;;7382157;19;20352;-80
2023/02/27 08:04:26;;;;;;;3.03;2.50;;;-0.30;99.90;;;;;;7384063;19;20317;-81
2023/02/27 08:06:52;;;;;;;2.58;2.20;;;-0.20;99.90;;;;;;7383967;19;20645;-83
2023/02/27 08:09:17;;;;;;;2.57;2.13;;;-0.20;99.90;;;;;;7382392;19;20328;-79
2023/02/27 08:11:43;;;;;;;3.30;1.92;;;-0.10;99.90;;;;;;7382124;19;20341;-82
2023/02/27 08:14:09;;;;;;;2.00;1.80;;;-0.10;99.90;;;;;;7381328;19;20321;-78
2023/02/27 08:16:34;;;;;;;2.30;2.00;;;-0.20;99.90;;;;;;7382415;19;20312;-77
2023/02/27 08:19:00;;;;;;;2.13;1.92;;;-0.10;99.90;;;;;;7383137;19;20340;-80
2023/02/27 08:21:25;;;;;;;2.27;2.00;;;0.10;99.90;;;;;;7384059;19;20329;-83
2023/02/27 08:23:51;;;;;;;2.83;2.20;;;0.30;99.90;;;;;;7385951;19;20312;-83
2023/02/27 08:26:18;;;;;;;3.00;2.33;;;0.50;99.90;;;;;;7385019;19;20316;-81
2023/02/27 08:28:44;;;;;;;3.20;2.00;;;0.70;99.90;;;;;;7385201;19;20313;-83
2023/02/27 08:31:16;;;;;;;2.28;2.08;;;0.80;99.90;;;;;;7385794;19;20650;-81
2023/02/27 08:33:48;;;;;;;2.75;2.03;;;0.90;99.90;;;;;;7386323;19;20332;-81
2023/02/27 08:36:14;;;;;;;2.03;1.83;;;1.00;99.90;;;;;;7385843;19;20329;-84
2023/02/27 08:38:39;;;;;;;3.00;2.70;;;1.00;99.90;;;;;;7386143;19;20357;-81
2023/02/27 08:41:12;;;;;;;4.72;2.25;;;1.00;99.90;;;;;;7387783;19;20339;-84
2023/02/27 08:43:38;;;;;;;2.33;2.05;;;1.00;99.90;;;;;;7388188;19;20317;-83
2023/02/27 08:46:12;;;;;;;1.90;1.80;;;1.10;99.90;;;;;;7391954;19;20325;-88
2023/02/27 08:48:45;;;;;;;2.60;2.40;;;1.20;99.90;;;;;;7382088;19;21067;-80
2023/02/27 08:51:11;;;;;;;2.42;2.22;;;1.20;99.90;;;;;;7384796;19;20359;-82
2023/02/27 08:53:38;;;;;;;2.75;2.20;;;1.30;99.90;;;;;;7387321;19;20330;-80
2023/02/27 08:56:04;;;;;;;2.20;2.00;;;1.30;99.90;;;;;;7387423;19;20317;-85
2023/02/27 08:58:40;;;;;;;3.00;2.30;;;1.50;99.90;;;;;;7387479;19;20328;-86
2023/02/27 09:01:05;;;;;;;2.38;2.03;;;1.50;99.90;;;;;;7385533;19;20307;-85
2023/02/27 09:03:31;;;;;;;3.00;2.17;;;1.50;99.90;;;;;;7386853;19;20312;-81
2023/02/27 09:06:00;;;;;;;3.03;2.23;;;1.60;99.90;;;;;;7384193;19;20328;-81
2023/02/27 09:08:40;;;;;;;2.67;2.08;;;1.60;99.90;;;;;;7384850;19;20312;-78
2023/02/27 09:11:06;;;;;;;3.17;2.05;;;1.70;99.90;;;;;;7387727;19;20744;-81
2023/02/27 09:13:32;;;;;;;2.38;2.17;;;1.70;99.90;;;;;;7386300;19;20320;-80
2023/02/27 09:15:57;;;;;;;2.70;2.25;;;1.60;99.90;;;;;;7381462;19;20301;-78
2023/02/27 09:18:23;;;;;;;4.87;2.60;;;1.70;99.90;;;;;;7375963;19;20300;-84
2023/02/27 09:20:50;;;;;;;2.20;2.00;;;1.80;99.90;;;;;;7385294;19;20340;-84
2023/02/27 09:23:18;;;;;;;3.50;2.00;;;1.90;99.90;;;;;;7385314;19;20397;-83
2023/02/27 09:25:45;;;;;;;2.00;1.80;;;2.00;99.90;;;;;;7389781;19;21268;-85
2023/02/27 09:28:18;;;;;;;3.25;2.15;;;2.10;99.90;;;;;;7388200;19;20317;-88
2023/02/27 09:30:44;;;;;;;1.77;1.63;;;2.10;99.90;;;;;;7387144;19;20633;-81
2023/02/27 09:33:10;;;;;;;2.10;1.77;;;2.20;99.90;;;;;;7386345;19;20400;-81
2023/02/27 09:35:43;;;;;;;2.05;1.60;;;2.20;99.90;;;;;;7383897;19;20324;-85
2023/02/27 09:38:09;;;;;;;2.40;1.90;;;2.40;99.90;;;;;;7386608;19;20317;-82
2023/02/27 09:40:39;;;;;;;2.90;1.88;;;2.40;99.90;;;;;;7385375;19;20625;-85
2023/02/27 09:43:34;;;;;;;1.90;1.80;;;2.60;99.90;;;;;;7382857;19;20332;-80
2023/02/27 09:46:01;;;;;;;2.35;1.98;;;2.50;99.90;;;;;;7280429;19;2004255;-82
2023/02/27 09:48:48;;;;;;;2.78;2.10;;;2.50;99.90;;;;;;7378762;19;20359;-86
2023/02/27 09:51:14;;;;;;;2.22;1.98;;;2.60;99.90;;;;;;7379302;19;20379;-87
2023/02/27 09:53:41;;;;;;;2.00;1.90;;;2.70;99.90;;;;;;7383439;19;20335;-79
2023/02/27 09:56:15;;;;;;;2.78;2.22;;;2.70;99.90;;;;;;7382886;19;20332;-79
2023/02/27 09:59:03;;;;;;;2.90;2.00;;;2.80;99.90;;;;;;7381475;19;20344;-82
2023/02/27 10:01:50;;;;;;;2.45;2.00;;;2.80;99.90;;;;;;7273830;19;2004255;-81
2023/02/27 10:04:23;;;;;;;2.10;1.90;;;2.90;99.90;;;;;;7382065;19;21174;-81
2023/02/27 10:06:56;;;;;;;2.30;2.10;;;3.00;99.90;;;;;;7362024;19;20301;-81
2023/02/27 10:09:55;;;;;;;2.30;1.63;;;3.10;99.90;;;;;;7390400;19;20337;-85
2023/02/27 10:13:04;;;;;;;2.05;1.80;;;3.10;99.90;;;;;;7292320;19;2004398;-85
2023/02/27 10:15:38;;;;;;;2.13;1.80;;;3.20;99.90;;;;;;7187002;19;2004346;-80
2023/02/27 10:18:05;;;;;;;2.60;1.70;;;3.30;99.90;;;;;;7394338;19;20336;-84
2023/02/27 10:20:33;;;;;;;2.15;1.95;;;3.50;99.90;;;;;;7394518;19;21142;-81
2023/02/27 10:23:00;;;;;;;3.50;1.90;;;3.60;99.90;;;;;;7377388;19;20843;-80
2023/02/27 10:25:26;;;;;;;2.00;1.80;;;3.60;99.90;;;;;;7391274;19;20334;-87
2023/02/27 10:27:54;;;;;;;1.70;1.60;;;3.60;99.90;;;;;;7397638;19;20384;-81
2023/02/27 10:30:28;;;;;;;1.58;1.48;;;3.60;99.90;;;;;;7398044;19;20325;-83
2023/02/27 10:32:58;;;;;;;1.80;1.55;;;3.50;99.90;;;;;;7398973;19;20335;-83
2023/02/27 10:35:35;;;;;;;2.23;1.70;;;3.60;99.90;;;;;;7403537;19;20942;-83
2023/02/27 10:38:18;;;;;;;1.83;1.63;;;3.60;99.90;;;;;;7293577;19;2004353;-83
2023/02/27 10:40:44;;;;;;;1.50;1.40;;;3.50;99.90;;;;;;7389943;19;20721;-81
2023/02/27 10:43:15;;;;;;;1.50;1.40;;;3.70;99.90;;;;;;7384350;19;20329;-81
2023/02/27 10:45:42;;;;;;;2.95;1.55;;;3.70;99.90;;;;;;7403798;19;20365;-91
2023/02/27 10:48:09;;;;;;;1.70;1.60;;;3.80;99.90;;;;;;7393487;19;20308;-84
2023/02/27 10:50:37;;;;;;;1.73;1.47;;;3.80;99.90;;;;;;7389909;19;20412;-80
2023/02/27 10:53:05;;;;;;;1.40;1.30;;;3.80;99.90;;;;;;7387318;19;20321;-81
2023/02/27 10:55:41;;;;;;;2.63;1.52;;;3.90;99.90;;;;;;7366524;19;20316;-82
2023/02/27 10:58:08;;;;;;;3.08;1.67;;;3.90;99.90;;;;;;7388006;19;20339;-81
2023/02/27 11:01:04;;;;;;;1.60;1.50;;;3.80;99.90;;;;;;7392405;19;20331;-80
2023/02/27 11:03:36;;;;;;;2.28;1.80;;;3.70;99.90;;;;;;7295702;19;2004340;-80
2023/02/27 11:06:23;;;;;;;2.17;1.98;;;3.80;99.90;;;;;;7393722;19;20344;-83
2023/02/27 11:09:11;;;;;;;1.87;1.60;;;3.90;99.90;;;;;;7389101;19;21167;-81
2023/02/27 11:11:43;;;;;;;1.83;1.50;;;3.90;99.90;;;;;;7288223;19;2004255;-86
2023/02/27 11:14:47;;;;;;;1.35;1.27;;;4.10;99.90;;;;;;7378833;19;20408;-80
2023/02/27 11:17:44;;;;;;;2.17;1.50;;;4.20;99.90;;;;;;7286038;19;2004432;-83
2023/02/27 11:20:39;;;;;;;1.52;1.40;;;4.20;99.90;;;;;;7280643;19;2004199;-79
2023/02/27 11:23:19;;;;;;;1.63;1.40;;;4.30;99.90;;;;;;7263387;19;2004262;-79
2023/02/27 11:26:42;;;;;;;1.43;1.33;;;4.20;99.90;;;;;;7362922;19;20331;-82
2023/02/27 11:30:02;;;;;;;1.50;1.40;;;4.30;99.90;;;;;;7261557;19;2004440;-81
2023/02/27 11:32:50;;;;;;;1.90;1.37;;;4.30;99.90;;;;;;7273159;19;2004584;-82
2023/02/27 11:35:37;;;;;;;2.10;1.23;;;4.30;99.90;;;;;;7384562;19;20333;-79
2023/02/27 11:38:07;;;;;;;1.25;1.15;;;4.40;99.90;;;;;;7279438;19;2004667;-80
2023/02/27 11:41:13;;;;;;;1.30;1.20;;;4.50;99.90;;;;;;7345210;19;20343;-79
2023/02/27 11:44:18;;;;;;;1.75;1.30;;;4.60;99.90;;;;;;7279957;19;2004368;-79
2023/02/27 11:46:50;;;;;;;1.70;1.30;;;4.60;99.90;;;;;;7288522;19;2004237;-79
2023/02/27 11:49:38;;;;;;;1.23;1.20;;;4.60;99.90;;;;;;7382198;19;20327;-80
2023/02/27 11:52:14;;;;;;;1.38;1.27;;;4.60;99.90;;;;;;7384378;19;20316;-80
2023/02/27 11:54:50;;;;;;;1.25;1.15;;;4.70;99.90;;;;;;7387267;19;21059;-81
2023/02/27 11:57:46;;;;;;;1.30;1.20;;;4.70;99.90;;;;;;7388696;19;20411;-81
2023/02/27 12:00:29;;;;;;;1.35;1.25;;;4.90;99.90;;;;;;7281394;19;2004247;-80
2023/02/27 12:03:04;;;;;;;1.00;0.90;;;5.10;99.90;;;;;;7391189;19;20312;-77
2023/02/27 12:05:48;;;;;;;1.07;1.07;;;5.10;99.90;;;;;;7281723;19;2004296;-80
2023/02/27 12:08:18;;;;;;;1.20;1.10;;;4.90;99.90;;;;;;7383396;19;20360;-84
2023/02/27 12:10:48;;;;;;;1.40;1.10;;;4.80;99.90;;;;;;7387719;19;20309;-79
2023/02/27 12:13:20;;;;;;;1.10;0.90;;;4.70;99.90;;;;;;7383329;19;20321;-84
2023/02/27 12:15:55;;;;;;;1.50;0.70;;;4.50;99.90;;;;;;7384994;19;20325;-78
2023/02/27 12:18:35;;;;;;;0.68;0.68;;;4.50;99.90;;;;;;7387528;19;20335;-80
2023/02/27 12:21:06;;;;;;;0.65;0.65;;;4.40;99.90;;;;;;7284186;19;2004228;-80
2023/02/27 12:23:48;;;;;;;0.65;0.65;;;4.40;99.90;;;;;;7384489;19;20309;-82
2023/02/27 12:26:20;;;;;;;1.48;1.17;;;4.30;99.90;;;;;;7380752;19;20396;-80
2023/02/27 12:29:10;;;;;;;0.98;0.95;;;4.20;99.90;;;;;;7379517;19;20339;-82
2023/02/27 12:31:36;;;;;;;1.60;0.90;;;4.20;99.90;;;;;;7262759;19;2004156;-79
2023/02/27 12:34:04;;;;;;;1.13;1.00;;;4.10;99.90;;;;;;7364475;19;20328;-83
2023/02/27 12:36:30;;;;;;;1.00;1.00;;;4.00;99.90;;;;;;7383010;19;20320;-88
2023/02/27 12:39:03;;;;;;;1.93;1.50;;;3.90;99.90;;;;;;7384579;19;20308;-84
2023/02/27 12:41:46;;;;;;;1.33;1.23;;;3.90;99.90;;;;;;7383137;19;20312;-87
2023/02/27 12:44:26;;;;;;;1.30;1.20;;;3.90;99.90;;;;;;7376397;19;20332;-86
2023/02/27 12:47:09;;;;;;;1.07;1.07;;;3.90;99.90;;;;;;7367409;19;20317;-81
2023/02/27 12:49:44;;;;;;;1.20;1.10;;;3.70;99.90;;;;;;7282375;19;2004185;-91
2023/02/27 12:52:19;;;;;;;1.00;1.00;;;3.70;99.90;;;;;;7384106;19;20872;-81
2023/02/27 12:55:06;;;;;;;1.35;1.20;;;3.80;99.90;;;;;;7386241;19;20311;-81
2023/02/27 12:58:02;;;;;;;1.07;1.07;;;3.80;99.90;;;;;;7279319;19;2004385;-79
2023/02/27 13:00:47;;;;;;;1.23;1.13;;;3.70;99.90;;;;;;7279993;19;2011492;-81
2023/02/27 13:03:38;;;;;;;1.10;1.10;;;3.80;99.90;;;;;;7379356;19;20337;-77
2023/02/27 13:06:32;;;;;;;1.35;1.10;;;3.80;99.90;;;;;;7278031;19;2004232;-82
2023/02/27 13:09:21;;;;;;;1.70;1.20;;;3.90;99.90;;;;;;7277361;19;2004378;-82
2023/02/27 13:12:04;;;;;;;1.17;1.07;;;3.90;99.90;;;;;;7381344;19;20317;-80
2023/02/27 13:14:44;;;;;;;1.50;1.40;;;4.10;99.90;;;;;;7280521;19;2004273;-79
2023/02/27 13:17:28;;;;;;;1.60;1.20;;;4.00;99.90;;;;;;7381811;19;20312;-77
2023/02/27 13:20:22;;;;;;;1.20;1.10;;;3.90;99.90;;;;;;7381658;19;20423;-79
2023/02/27 13:23:09;;;;;;;1.00;0.90;;;3.70;99.90;;;;;;7278023;19;2004222;-77